createdAt,value
2023-05-06T00:00:44.135Z,4045.00
2023-05-06T00:01:44.153Z,4025.00
2023-05-06T00:02:44.331Z,4063.00
2023-05-06T00:03:44.570Z,4019.00
2023-05-06T00:04:44.339Z,4013.00
2023-05-06T00:05:44.345Z,4039.00
2023-05-06T00:06:44.424Z,4083.00
2023-05-06T00:07:44.467Z,4049.00
2023-05-06T00:08:44.576Z,4037.00
2023-05-06T00:09:44.628Z,4042.00
2023-05-06T00:10:44.627Z,4020.00
2023-05-06T00:11:44.666Z,4055.00
2023-05-06T00:12:44.737Z,4048.00
2023-05-06T00:13:44.760Z,4078.00
2023-05-06T00:14:44.836Z,4082.00
2023-05-06T00:15:44.875Z,4040.00
2023-05-06T00:16:45.059Z,4071.00
2023-05-06T00:17:45.041Z,4047.00
2023-05-06T00:18:45.061Z,4044.00
2023-05-06T00:19:45.090Z,4026.00
2023-05-06T00:20:45.130Z,4046.00
2023-05-06T00:21:45.236Z,4036.00
2023-05-06T00:22:45.248Z,4069.00
2023-05-06T00:23:45.297Z,4061.00
2023-05-06T00:24:45.325Z,4064.00
2023-05-06T00:25:45.386Z,4057.00
2023-05-06T00:26:45.448Z,4093.00
2023-05-06T00:27:45.492Z,4083.00
2023-05-06T00:28:45.535Z,4082.00
2023-05-06T00:29:45.606Z,4055.00
2023-05-06T00:30:45.659Z,4078.00
2023-05-06T00:31:45.741Z,4042.00
2023-05-06T00:32:45.932Z,4087.00
2023-05-06T00:33:45.839Z,4050.00
2023-05-06T00:34:45.906Z,4054.00
2023-05-06T00:35:45.956Z,4057.00
2023-05-06T00:36:45.990Z,4067.00
2023-05-06T00:37:46.026Z,4079.00
2023-05-06T00:38:46.088Z,4077.00
2023-05-06T00:39:46.142Z,4061.00
2023-05-06T00:40:46.206Z,4073.00
2023-05-06T00:41:46.239Z,4063.00
2023-05-06T00:42:46.288Z,4077.00
2023-05-06T00:43:46.328Z,4086.00
2023-05-06T00:44:46.833Z,4048.00
2023-05-06T00:45:46.464Z,4065.00
2023-05-06T00:46:46.485Z,4062.00
2023-05-06T00:47:46.552Z,4101.00
2023-05-06T00:48:46.545Z,4081.00
2023-05-06T00:49:46.639Z,4077.00
2023-05-06T00:50:46.672Z,4073.00
2023-05-06T00:51:46.748Z,4050.00
2023-05-06T00:52:46.811Z,4083.00
2023-05-06T00:53:46.911Z,4061.00
2023-05-06T00:54:46.910Z,4055.00
2023-05-06T00:55:46.906Z,4082.00
2023-05-06T00:56:47.094Z,4068.00
2023-05-06T00:57:47.035Z,4071.00
2023-05-06T00:58:47.105Z,4042.00
2023-05-06T00:59:47.136Z,4078.00
2023-05-06T01:00:47.246Z,4050.00
2023-05-06T01:01:47.259Z,4091.00
2023-05-06T01:02:48.085Z,4038.00
2023-05-06T01:03:47.543Z,4035.00
2023-05-06T01:04:47.457Z,4066.00
2023-05-06T01:05:47.462Z,4058.00
2023-05-06T01:06:47.562Z,4071.00
2023-05-06T01:07:47.556Z,4014.00
2023-05-06T01:08:47.648Z,4012.00
2023-05-06T01:09:47.702Z,3964.00
2023-05-06T01:10:47.852Z,3968.00
2023-05-06T01:11:47.786Z,3986.00
2023-05-06T01:12:47.956Z,3964.00
2023-05-06T01:13:47.908Z,3941.00
2023-05-06T01:14:48.031Z,3995.00
2023-05-06T01:15:48.071Z,3955.00
2023-05-06T01:16:48.163Z,3962.00
2023-05-06T01:17:48.211Z,3940.00
2023-05-06T01:18:48.224Z,3959.00
2023-05-06T01:19:48.285Z,3929.00
2023-05-06T01:20:48.361Z,3930.00
2023-05-06T01:21:48.435Z,3969.00
2023-05-06T01:22:48.493Z,3958.00
2023-05-06T01:23:48.514Z,3943.00
2023-05-06T01:24:48.596Z,3930.00
2023-05-06T01:25:48.744Z,3947.00
2023-05-06T01:26:48.706Z,3931.00
2023-05-06T01:27:48.752Z,3936.00
2023-05-06T01:28:48.944Z,3930.00
2023-05-06T01:29:48.908Z,3929.00
2023-05-06T01:30:48.975Z,3909.00
2023-05-06T01:31:49.030Z,3903.00
2023-05-06T01:32:49.114Z,3914.00
2023-05-06T01:33:49.149Z,3921.00
2023-05-06T01:34:49.215Z,3917.00
2023-05-06T01:35:49.248Z,3889.00
2023-05-06T01:36:49.862Z,3932.00
2023-05-06T01:37:49.364Z,3906.00
2023-05-06T01:38:49.447Z,3860.00
2023-05-06T01:39:49.564Z,3912.00
2023-05-06T01:40:49.570Z,3881.00
2023-05-06T01:41:49.613Z,3864.00
2023-05-06T01:42:49.673Z,3865.00
2023-05-06T01:43:49.733Z,3900.00
2023-05-06T01:44:49.823Z,3899.00
2023-05-06T01:45:49.831Z,3901.00
2023-05-06T01:46:49.932Z,3898.00
2023-05-06T01:47:50.022Z,3899.00
2023-05-06T01:48:50.049Z,3879.00
2023-05-06T01:49:50.095Z,3843.00
2023-05-06T01:50:50.141Z,3891.00
2023-05-06T01:51:50.219Z,3894.00
2023-05-06T01:52:50.255Z,3877.00
2023-05-06T01:53:50.344Z,3900.00
2023-05-06T01:54:50.482Z,3884.00
2023-05-06T01:55:50.460Z,3897.00
2023-05-06T01:56:50.513Z,3920.00
2023-05-06T01:57:50.609Z,3879.00
2023-05-06T01:58:50.641Z,3872.00
2023-05-06T01:59:50.864Z,3814.00
2023-05-06T02:00:50.817Z,3804.00
2023-05-06T02:01:50.847Z,3839.00
2023-05-06T02:02:52.054Z,3846.00
2023-05-06T02:03:50.998Z,3839.00
2023-05-06T02:04:51.020Z,3836.00
2023-05-06T02:05:51.103Z,3860.00
2023-05-06T02:06:51.129Z,3865.00
2023-05-06T02:07:51.181Z,3859.00
2023-05-06T02:08:51.311Z,3849.00
2023-05-06T02:09:51.888Z,3814.00
2023-05-06T02:10:51.467Z,3858.00
2023-05-06T02:11:51.456Z,3849.00
2023-05-06T02:12:51.529Z,3817.00
2023-05-06T02:13:51.525Z,3820.00
2023-05-06T02:14:51.606Z,3862.00
2023-05-06T02:15:51.632Z,3825.00
2023-05-06T02:16:51.837Z,3843.00
2023-05-06T02:17:51.768Z,3860.00
2023-05-06T02:18:51.826Z,3815.00
2023-05-06T02:19:51.868Z,3820.00
2023-05-06T02:20:51.928Z,3857.00
2023-05-06T02:21:52.019Z,3825.00
2023-05-06T02:22:52.054Z,3803.00
2023-05-06T02:23:52.154Z,3822.00
2023-05-06T02:24:52.097Z,3802.00
2023-05-06T02:25:52.156Z,3778.00
2023-05-06T02:26:52.234Z,3792.00
2023-05-06T02:27:52.346Z,3786.00
2023-05-06T02:28:52.406Z,3775.00
2023-05-06T02:29:52.414Z,3767.00
2023-05-06T02:30:52.443Z,3777.00
2023-05-06T02:31:52.569Z,3746.00
2023-05-06T02:32:52.594Z,3741.00
2023-05-06T02:33:52.505Z,3735.00
2023-05-06T02:34:52.555Z,3738.00
2023-05-06T02:35:52.559Z,3764.00
2023-05-06T02:36:53.386Z,3764.00
2023-05-06T02:37:52.648Z,3762.00
2023-05-06T02:38:52.684Z,3765.00
2023-05-06T02:39:52.770Z,3735.00
2023-05-06T02:40:52.790Z,3702.00
2023-05-06T02:41:52.777Z,3712.00
2023-05-06T02:42:52.812Z,3741.00
2023-05-06T02:43:52.809Z,3717.00
2023-05-06T02:44:52.842Z,3738.00
2023-05-06T02:45:52.900Z,3704.00
2023-05-06T02:46:52.915Z,3705.00
2023-05-06T02:47:53.005Z,3732.00
2023-05-06T02:48:53.033Z,3713.00
2023-05-06T02:49:52.988Z,3740.00
2023-05-06T02:50:53.031Z,3727.00
2023-05-06T02:51:53.057Z,3716.00
2023-05-06T02:52:53.104Z,3732.00
2023-05-06T02:53:53.113Z,3706.00
2023-05-06T02:54:53.187Z,3681.00
2023-05-06T02:55:53.215Z,3676.00
2023-05-06T02:56:53.207Z,3699.00
2023-05-06T02:57:53.178Z,3689.00
2023-05-06T02:58:53.198Z,3710.00
2023-05-06T02:59:53.225Z,3694.00
2023-05-06T03:00:53.261Z,3696.00
2023-05-06T03:01:53.226Z,3696.00
2023-05-06T03:02:53.981Z,3722.00
2023-05-06T03:03:53.296Z,3700.00
2023-05-06T03:04:53.374Z,3682.00
2023-05-06T03:05:53.293Z,3700.00
2023-05-06T03:06:53.319Z,3671.00
2023-05-06T03:07:53.335Z,3685.00
2023-05-06T03:08:53.365Z,3697.00
2023-05-06T03:09:53.373Z,3716.00
2023-05-06T03:10:53.350Z,3672.00
2023-05-06T03:11:53.363Z,3678.00
2023-05-06T03:12:53.399Z,3694.00
2023-05-06T03:13:53.417Z,3673.00
2023-05-06T03:14:53.332Z,3712.00
2023-05-06T03:15:53.352Z,3662.00
2023-05-06T03:16:53.362Z,3691.00
2023-05-06T03:17:53.410Z,3696.00
2023-05-06T03:18:53.393Z,3651.00
2023-05-06T03:19:53.398Z,3694.00
2023-05-06T03:20:53.428Z,3663.00
2023-05-06T03:21:53.452Z,3625.00
2023-05-06T03:22:53.382Z,3664.00
2023-05-06T03:23:53.366Z,3661.00
2023-05-06T03:24:53.413Z,3656.00
2023-05-06T03:25:53.393Z,3654.00
2023-05-06T03:26:53.397Z,3643.00
2023-05-06T03:27:53.396Z,3651.00
2023-05-06T03:28:53.407Z,3622.00
2023-05-06T03:29:53.493Z,3632.00
2023-05-06T03:30:53.402Z,3657.00
2023-05-06T03:31:53.485Z,3663.00
2023-05-06T03:32:53.410Z,3657.00
2023-05-06T03:33:53.414Z,3632.00
2023-05-06T03:34:53.402Z,3630.00
2023-05-06T03:35:53.404Z,3635.00
2023-05-06T03:36:53.469Z,3631.00
2023-05-06T03:37:53.398Z,3638.00
2023-05-06T03:38:53.371Z,3638.00
2023-05-06T03:39:53.402Z,3652.00
2023-05-06T03:40:53.930Z,3669.00
2023-05-06T03:41:53.411Z,3648.00
2023-05-06T03:42:53.406Z,3634.00
2023-05-06T03:43:53.391Z,3644.00
2023-05-06T03:44:53.372Z,3646.00
2023-05-06T03:45:53.407Z,3629.00
2023-05-06T03:46:53.379Z,3639.00
2023-05-06T03:47:53.459Z,3600.00
2023-05-06T03:48:53.388Z,3579.00
2023-05-06T03:49:53.393Z,3610.00
2023-05-06T03:50:53.407Z,3613.00
2023-05-06T03:51:53.386Z,3596.00
2023-05-06T03:52:53.449Z,3578.00
2023-05-06T03:53:54.729Z,3593.00
2023-05-06T03:54:53.414Z,3587.00
2023-05-06T03:55:53.400Z,3562.00
2023-05-06T03:56:53.416Z,3588.00
2023-05-06T03:57:53.395Z,3571.00
2023-05-06T03:58:53.359Z,3589.00
2023-05-06T03:59:53.404Z,3554.00
2023-05-06T04:00:53.387Z,3564.00
2023-05-06T04:01:53.427Z,3580.00
2023-05-06T04:02:53.444Z,3576.00
2023-05-06T04:03:53.435Z,3564.00
2023-05-06T04:04:53.370Z,3574.00
2023-05-06T04:05:53.416Z,3583.00
2023-05-06T04:06:53.364Z,3586.00
2023-05-06T04:07:53.467Z,3573.00
2023-05-06T04:08:53.433Z,3572.00
2023-05-06T04:09:53.368Z,3537.00
2023-05-06T04:10:53.366Z,3588.00
2023-05-06T04:11:53.449Z,3562.00
2023-05-06T04:12:53.374Z,3564.00
2023-05-06T04:13:53.393Z,3543.00
2023-05-06T04:14:53.336Z,3550.00
2023-05-06T04:15:53.413Z,3520.00
2023-05-06T04:16:53.382Z,3515.00
2023-05-06T04:17:53.375Z,3523.00
2023-05-06T04:18:53.883Z,3509.00
2023-05-06T04:19:53.355Z,3516.00
2023-05-06T04:20:53.407Z,3482.00
2023-05-06T04:21:53.365Z,3479.00
2023-05-06T04:22:53.331Z,3474.00
2023-05-06T04:23:53.333Z,3484.00
2023-05-06T04:24:53.345Z,3495.00
2023-05-06T04:25:53.342Z,3462.00
2023-05-06T04:26:53.344Z,3457.00
2023-05-06T04:27:53.370Z,3463.00
2023-05-06T04:28:53.375Z,3475.00
2023-05-06T04:29:53.393Z,3474.00
2023-05-06T04:30:53.401Z,3463.00
2023-05-06T04:31:53.371Z,3457.00
2023-05-06T04:32:53.389Z,3446.00
2023-05-06T04:33:53.427Z,3457.00
2023-05-06T04:34:53.393Z,3463.00
2023-05-06T04:35:53.400Z,3449.00
2023-05-06T04:36:53.444Z,3475.00
2023-05-06T04:37:53.451Z,3471.00
2023-05-06T04:38:53.428Z,3458.00
2023-05-06T04:39:53.443Z,3470.00
2023-05-06T04:40:53.518Z,3461.00
2023-05-06T04:41:53.432Z,3475.00
2023-05-06T04:42:53.428Z,3460.00
2023-05-06T04:43:53.418Z,3469.00
2023-05-06T04:44:53.439Z,3465.00
2023-05-06T04:45:53.945Z,3456.00
2023-05-06T04:46:53.472Z,3470.00
2023-05-06T04:47:53.504Z,3456.00
2023-05-06T04:48:53.481Z,3438.00
2023-05-06T04:49:53.474Z,3445.00
2023-05-06T04:50:53.520Z,3465.00
2023-05-06T04:51:53.506Z,3446.00
2023-05-06T04:52:53.557Z,3459.00
2023-05-06T04:53:53.499Z,3464.00
2023-05-06T04:54:53.529Z,3481.00
2023-05-06T04:55:53.560Z,3468.00
2023-05-06T04:56:53.524Z,3467.00
2023-05-06T04:57:53.542Z,3473.00
2023-05-06T04:58:53.531Z,3475.00
2023-05-06T04:59:53.547Z,3477.00
2023-05-06T05:00:53.673Z,3489.00
2023-05-06T05:01:54.432Z,3504.00
2023-05-06T05:02:54.565Z,3496.00
2023-05-06T05:03:53.543Z,3504.00
2023-05-06T05:04:53.540Z,3487.00
2023-05-06T05:05:53.520Z,3506.00
2023-05-06T05:06:53.542Z,3494.00
2023-05-06T05:07:53.560Z,3488.00
2023-05-06T05:08:55.316Z,3482.00
2023-05-06T05:09:53.513Z,3498.00
2023-05-06T05:10:53.589Z,3496.00
2023-05-06T05:11:53.536Z,3489.00
2023-05-06T05:12:53.722Z,3492.00
2023-05-06T05:13:54.820Z,3486.00
2023-05-06T05:14:53.544Z,3481.00
2023-05-06T05:15:53.515Z,3450.00
2023-05-06T05:16:53.546Z,3476.00
2023-05-06T05:17:53.502Z,3455.00
2023-05-06T05:18:53.475Z,3467.00
2023-05-06T05:19:53.521Z,3447.00
2023-05-06T05:20:53.500Z,3460.00
2023-05-06T05:21:53.462Z,3439.00
2023-05-06T05:22:53.471Z,3451.00
2023-05-06T05:23:53.461Z,3427.00
2023-05-06T05:24:53.454Z,3427.00
2023-05-06T05:25:53.434Z,3420.00
2023-05-06T05:26:53.411Z,3426.00
2023-05-06T05:27:53.417Z,3421.00
2023-05-06T05:28:53.480Z,3423.00
2023-05-06T05:29:53.411Z,3421.00
2023-05-06T05:30:53.503Z,3405.00
2023-05-06T05:31:53.412Z,3404.00
2023-05-06T05:32:53.511Z,3392.00
2023-05-06T05:33:53.414Z,3386.00
2023-05-06T05:34:53.396Z,3385.00
2023-05-06T05:35:53.397Z,3370.00
2023-05-06T05:36:53.457Z,3373.00
2023-05-06T05:37:53.360Z,3360.00
2023-05-06T05:38:53.369Z,3364.00
2023-05-06T05:39:53.363Z,3345.00
2023-05-06T05:40:53.342Z,3341.00
2023-05-06T05:41:53.361Z,3342.00
2023-05-06T05:42:53.309Z,3341.00
2023-05-06T05:43:53.317Z,3328.00
2023-05-06T05:44:53.323Z,3329.00
2023-05-06T05:45:53.361Z,3308.00
2023-05-06T05:46:53.284Z,3306.00
2023-05-06T05:47:53.329Z,3293.00
2023-05-06T05:48:53.298Z,3277.00
2023-05-06T05:49:53.289Z,3298.00
2023-05-06T05:50:53.286Z,3290.00
2023-05-06T05:51:53.284Z,3291.00
2023-05-06T05:52:53.276Z,3283.00
2023-05-06T05:53:53.246Z,3284.00
2023-05-06T05:54:53.226Z,3285.00
2023-05-06T05:55:54.153Z,3278.00
2023-05-06T05:56:53.248Z,3281.00
2023-05-06T05:57:53.206Z,3296.00
2023-05-06T05:58:53.296Z,3279.00
2023-05-06T05:59:53.195Z,3262.00
2023-05-06T06:00:53.501Z,3268.00
2023-05-06T06:01:53.189Z,3261.00
2023-05-06T06:02:53.256Z,3276.00
2023-05-06T06:03:53.299Z,3274.00
2023-05-06T06:04:53.261Z,3288.00
2023-05-06T06:05:53.204Z,3301.00
2023-05-06T06:06:53.159Z,3297.00
2023-05-06T06:07:53.182Z,3294.00
2023-05-06T06:08:53.153Z,3266.00
2023-05-06T06:09:53.132Z,3245.00
2023-05-06T06:10:53.237Z,3253.00
2023-05-06T06:11:53.118Z,3246.00
2023-05-06T06:12:53.139Z,3234.00
2023-05-06T06:13:53.133Z,3258.00
2023-05-06T06:14:53.118Z,3247.00
2023-05-06T06:15:53.096Z,3250.00
2023-05-06T06:16:53.099Z,3243.00
2023-05-06T06:17:53.112Z,3263.00
2023-05-06T06:18:53.072Z,3198.00
2023-05-06T06:19:53.067Z,3192.00
2023-05-06T06:20:53.630Z,3226.00
2023-05-06T06:21:53.015Z,3221.00
2023-05-06T06:22:53.058Z,3216.00
2023-05-06T06:23:53.009Z,3228.00
2023-05-06T06:24:53.008Z,3229.00
2023-05-06T06:25:53.011Z,3190.00
2023-05-06T06:26:53.048Z,3188.00
2023-05-06T06:27:53.016Z,3165.00
2023-05-06T06:28:52.986Z,3164.00
2023-05-06T06:29:53.005Z,3164.00
2023-05-06T06:30:52.975Z,3151.00
2023-05-06T06:31:53.011Z,3151.00
2023-05-06T06:32:53.169Z,3144.00
2023-05-06T06:33:52.963Z,3160.00
2023-05-06T06:34:52.964Z,3170.00
2023-05-06T06:35:52.970Z,3155.00
2023-05-06T06:36:52.927Z,3144.00
2023-05-06T06:37:52.942Z,3156.00
2023-05-06T06:38:52.923Z,3114.00
2023-05-06T06:39:52.978Z,3132.00
2023-05-06T06:40:52.940Z,3116.00
2023-05-06T06:41:52.882Z,3126.00
2023-05-06T06:42:52.884Z,3148.00
2023-05-06T06:43:52.892Z,3159.00
2023-05-06T06:44:52.903Z,3183.00
2023-05-06T06:45:52.930Z,3165.00
2023-05-06T06:46:52.857Z,3116.00
2023-05-06T06:47:52.906Z,3149.00
2023-05-06T06:48:52.834Z,3175.00
2023-05-06T06:49:52.833Z,3157.00
2023-05-06T06:50:52.891Z,3154.00
2023-05-06T06:51:52.837Z,3145.00
2023-05-06T06:52:52.808Z,3146.00
2023-05-06T06:53:52.838Z,3161.00
2023-05-06T06:54:52.824Z,3161.00
2023-05-06T06:55:52.794Z,3157.00
2023-05-06T06:56:52.820Z,3191.00
2023-05-06T06:57:52.815Z,3200.00
2023-05-06T06:58:53.570Z,3203.00
2023-05-06T06:59:52.760Z,3149.00
2023-05-06T07:00:52.790Z,3169.00
2023-05-06T07:01:52.744Z,3140.00
2023-05-06T07:02:52.793Z,3135.00
2023-05-06T07:03:52.822Z,3134.00
2023-05-06T07:04:52.958Z,3138.00
2023-05-06T07:05:52.807Z,3154.00
2023-05-06T07:06:52.716Z,3131.00
2023-05-06T07:07:52.735Z,3134.00
2023-05-06T07:08:52.731Z,3185.00
2023-05-06T07:09:52.703Z,3172.00
2023-05-06T07:10:52.724Z,3161.00
2023-05-06T07:11:52.702Z,3162.00
2023-05-06T07:12:52.747Z,3125.00
2023-05-06T07:13:52.685Z,3132.00
2023-05-06T07:14:52.672Z,3133.00
2023-05-06T07:15:52.651Z,3138.00
2023-05-06T07:16:52.671Z,2983.00
2023-05-06T07:17:52.693Z,3023.00
2023-05-06T07:18:52.625Z,3024.00
2023-05-06T07:19:52.656Z,2981.00
2023-05-06T07:20:52.713Z,2993.00
2023-05-06T07:21:52.663Z,2970.00
2023-05-06T07:22:52.664Z,2942.00
2023-05-06T07:23:52.595Z,2976.00
2023-05-06T07:24:52.600Z,2919.00
2023-05-06T07:25:52.616Z,2909.00
2023-05-06T07:26:52.580Z,2857.00
2023-05-06T07:27:52.569Z,2878.00
2023-05-06T07:28:52.555Z,2935.00
2023-05-06T07:29:52.577Z,2903.00
2023-05-06T07:30:52.645Z,2886.00
2023-05-06T07:31:52.537Z,2900.00
2023-05-06T07:32:52.544Z,2858.00
2023-05-06T07:33:52.541Z,2861.00
2023-05-06T07:34:52.542Z,2904.00
2023-05-06T07:35:52.553Z,2878.00
2023-05-06T07:36:52.572Z,2836.00
2023-05-06T07:37:52.527Z,2870.00
2023-05-06T07:38:52.480Z,2864.00
2023-05-06T07:39:52.514Z,2890.00
2023-05-06T07:40:52.527Z,2897.00
2023-05-06T07:41:52.481Z,2861.00
2023-05-06T07:42:52.548Z,2861.00
2023-05-06T07:43:52.465Z,2837.00
2023-05-06T07:44:52.460Z,2819.00
2023-05-06T07:45:53.013Z,2859.00
2023-05-06T07:46:52.556Z,2821.00
2023-05-06T07:47:52.550Z,2841.00
2023-05-06T07:48:52.427Z,2860.00
2023-05-06T07:49:52.407Z,2873.00
2023-05-06T07:50:52.425Z,2868.00
2023-05-06T07:51:52.434Z,2866.00
2023-05-06T07:52:52.525Z,2862.00
2023-05-06T07:53:52.385Z,2840.00
2023-05-06T07:54:52.377Z,2859.00
2023-05-06T07:55:52.412Z,2829.00
2023-05-06T07:56:52.377Z,2886.00
2023-05-06T07:57:52.348Z,2870.00
2023-05-06T07:58:52.353Z,2868.00
2023-05-06T07:59:52.356Z,2874.00
2023-05-06T08:00:52.347Z,2846.00
2023-05-06T08:01:52.414Z,2837.00
2023-05-06T08:02:52.377Z,2852.00
2023-05-06T08:03:52.335Z,2864.00
2023-05-06T08:04:52.435Z,2825.00
2023-05-06T08:05:52.319Z,2840.00
2023-05-06T08:06:52.362Z,2845.00
2023-05-06T08:07:52.273Z,2819.00
2023-05-06T08:08:52.425Z,2815.00
2023-05-06T08:09:52.419Z,2834.00
2023-05-06T08:10:52.368Z,2814.00
2023-05-06T08:11:52.372Z,2843.00
2023-05-06T08:12:52.484Z,2814.00
2023-05-06T08:13:52.468Z,2869.00
2023-05-06T08:14:52.501Z,2884.00
2023-05-06T08:15:52.593Z,2769.00
2023-05-06T08:16:52.647Z,2701.00
2023-05-06T08:17:52.724Z,2716.00
2023-05-06T08:18:52.677Z,2751.00
2023-05-06T08:19:52.711Z,2792.00
2023-05-06T08:20:52.736Z,2756.00
2023-05-06T08:21:52.797Z,2747.00
2023-05-06T08:22:52.861Z,2730.00
2023-05-06T08:23:52.901Z,2732.00
2023-05-06T08:24:53.015Z,2740.00
2023-05-06T08:25:53.037Z,2748.00
2023-05-06T08:26:53.072Z,2745.00
2023-05-06T08:27:53.102Z,2740.00
2023-05-06T08:28:53.168Z,2757.00
2023-05-06T08:29:53.213Z,2676.00
2023-05-06T08:30:53.277Z,2659.00
2023-05-06T08:31:53.339Z,2652.00
2023-05-06T08:32:53.405Z,2674.00
2023-05-06T08:33:54.726Z,2679.00
2023-05-06T08:34:53.443Z,2659.00
2023-05-06T08:35:53.437Z,2586.00
2023-05-06T08:36:53.436Z,2658.00
2023-05-06T08:37:53.473Z,2568.00
2023-05-06T08:38:53.518Z,2576.00
2023-05-06T08:39:53.510Z,2581.00
2023-05-06T08:40:54.126Z,2607.00
2023-05-06T08:41:53.591Z,2614.00
2023-05-06T08:42:53.600Z,2645.00
2023-05-06T08:43:53.647Z,2591.00
2023-05-06T08:44:53.651Z,2551.00
2023-05-06T08:45:53.692Z,2616.00
2023-05-06T08:46:53.759Z,2598.00
2023-05-06T08:47:53.777Z,2588.00
2023-05-06T08:48:53.853Z,2512.00
2023-05-06T08:49:53.878Z,2516.00
2023-05-06T08:50:53.929Z,2486.00
2023-05-06T08:51:53.927Z,2536.00
2023-05-06T08:52:53.944Z,2545.00
2023-05-06T08:53:53.961Z,2492.00
2023-05-06T08:54:53.992Z,2390.00
2023-05-06T08:55:54.045Z,2409.00
2023-05-06T08:56:54.145Z,2347.00
2023-05-06T08:57:54.098Z,2318.00
2023-05-06T08:58:54.152Z,2283.00
2023-05-06T08:59:54.189Z,2309.00
2023-05-06T09:00:54.225Z,2345.00
2023-05-06T09:01:54.254Z,2373.00
2023-05-06T09:02:54.388Z,2289.00
2023-05-06T09:03:54.270Z,2297.00
2023-05-06T09:04:54.292Z,2302.00
2023-05-06T09:05:54.351Z,2323.00
2023-05-06T09:06:54.303Z,2288.00
2023-05-06T09:07:54.361Z,2255.00
2023-05-06T09:08:54.381Z,2319.00
2023-05-06T09:09:54.424Z,2116.00
2023-05-06T09:10:54.429Z,2169.00
2023-05-06T09:11:54.483Z,2335.00
2023-05-06T09:12:54.628Z,2211.00
2023-05-06T09:13:54.510Z,2262.00
2023-05-06T09:14:54.498Z,2211.00
2023-05-06T09:15:54.519Z,2188.00
2023-05-06T09:16:54.574Z,2189.00
2023-05-06T09:17:54.549Z,2275.00
2023-05-06T09:18:54.489Z,2334.00
2023-05-06T09:19:54.589Z,2360.00
2023-05-06T09:20:54.513Z,2360.00
2023-05-06T09:21:54.508Z,2288.00
2023-05-06T09:22:54.540Z,2281.00
2023-05-06T09:23:54.491Z,2281.00
2023-05-06T09:24:54.496Z,2217.00
2023-05-06T09:25:54.486Z,2288.00
2023-05-06T09:26:54.493Z,2341.00
2023-05-06T09:27:55.037Z,2325.00
2023-05-06T09:28:54.546Z,2289.00
2023-05-06T09:29:54.497Z,2298.00
2023-05-06T09:30:54.540Z,2287.00
2023-05-06T09:31:54.567Z,2336.00
2023-05-06T09:32:54.513Z,2322.00
2023-05-06T09:33:54.476Z,2264.00
2023-05-06T09:34:54.471Z,2294.00
2023-05-06T09:35:54.527Z,2301.00
2023-05-06T09:36:54.481Z,2266.00
2023-05-06T09:37:54.455Z,2275.00
2023-05-06T09:38:54.445Z,2289.00
2023-05-06T09:39:54.461Z,2272.00
2023-05-06T09:40:54.473Z,2275.00
2023-05-06T09:41:54.445Z,2290.00
2023-05-06T09:42:54.444Z,2316.00
2023-05-06T09:43:54.459Z,2303.00
2023-05-06T09:44:54.457Z,2365.00
2023-05-06T09:45:54.470Z,2322.00
2023-05-06T09:46:54.493Z,2355.00
2023-05-06T09:47:54.558Z,2322.00
2023-05-06T09:48:54.502Z,2326.00
2023-05-06T09:49:54.532Z,2340.00
2023-05-06T09:50:54.604Z,2382.00
2023-05-06T09:51:54.615Z,2380.00
2023-05-06T09:52:55.527Z,2364.00
2023-05-06T09:53:54.814Z,2356.00
2023-05-06T09:54:54.734Z,2407.00
2023-05-06T09:55:54.785Z,2378.00
2023-05-06T09:56:54.867Z,2432.00
2023-05-06T09:57:54.885Z,2390.00
2023-05-06T09:58:54.867Z,2447.00
2023-05-06T09:59:54.923Z,2439.00
2023-05-06T10:00:54.990Z,2466.00
2023-05-06T10:01:55.098Z,2436.00
2023-05-06T10:02:55.249Z,2389.00
2023-05-06T10:03:55.190Z,2409.00
2023-05-06T10:04:55.304Z,2468.00
2023-05-06T10:05:55.248Z,2455.00
2023-05-06T10:06:55.275Z,2468.00
2023-05-06T10:07:55.312Z,2466.00
2023-05-06T10:08:56.040Z,2490.00
2023-05-06T10:09:55.400Z,2512.00
2023-05-06T10:10:55.442Z,2536.00
2023-05-06T10:11:55.508Z,2580.00
2023-05-06T10:12:55.609Z,2524.00
2023-05-06T10:13:55.625Z,2500.00
2023-05-06T10:14:55.689Z,2474.00
2023-05-06T10:15:55.796Z,2526.00
2023-05-06T10:16:55.821Z,2552.00
2023-05-06T10:17:55.929Z,2538.00
2023-05-06T10:18:55.949Z,2591.00
2023-05-06T10:19:55.999Z,2554.00
2023-05-06T10:20:56.049Z,2570.00
2023-05-06T10:21:56.134Z,2559.00
2023-05-06T10:22:56.210Z,2569.00
2023-05-06T10:23:56.263Z,2568.00
2023-05-06T10:24:56.318Z,2635.00
2023-05-06T10:25:56.368Z,2616.00
2023-05-06T10:26:56.452Z,2664.00
2023-05-06T10:27:56.494Z,2654.00
2023-05-06T10:28:56.566Z,2618.00
2023-05-06T10:29:56.606Z,2616.00
2023-05-06T10:30:56.661Z,2576.00
2023-05-06T10:31:56.801Z,2584.00
2023-05-06T10:32:56.819Z,2595.00
2023-05-06T10:33:56.843Z,2653.00
2023-05-06T10:34:56.921Z,2714.00
2023-05-06T10:35:56.924Z,2682.00
2023-05-06T10:36:57.019Z,2645.00
2023-05-06T10:37:57.124Z,2690.00
2023-05-06T10:38:57.114Z,2663.00
2023-05-06T10:39:57.168Z,2635.00
2023-05-06T10:40:57.226Z,2690.00
2023-05-06T10:41:57.357Z,2667.00
2023-05-06T10:42:57.432Z,2689.00
2023-05-06T10:43:57.537Z,2619.00
2023-05-06T10:44:57.482Z,2625.00
2023-05-06T10:45:57.598Z,2628.00
2023-05-06T10:46:57.581Z,2623.00
2023-05-06T10:47:57.817Z,2701.00
2023-05-06T10:48:57.760Z,2761.00
2023-05-06T10:49:57.818Z,2727.00
2023-05-06T10:50:57.788Z,2751.00
2023-05-06T10:51:57.857Z,2794.00
2023-05-06T10:52:58.528Z,2792.00
2023-05-06T10:53:57.976Z,2810.00
2023-05-06T10:54:58.038Z,2781.00
2023-05-06T10:55:58.084Z,2790.00
2023-05-06T10:56:58.146Z,2745.00
2023-05-06T10:57:58.205Z,2743.00
2023-05-06T10:58:58.234Z,2812.00
2023-05-06T10:59:58.329Z,2797.00
2023-05-06T11:00:58.625Z,2785.00
2023-05-06T11:01:58.434Z,2783.00
2023-05-06T11:02:59.184Z,2817.00
2023-05-06T11:03:58.510Z,2817.00
2023-05-06T11:04:58.690Z,2819.00
2023-05-06T11:05:58.634Z,2841.00
2023-05-06T11:06:58.697Z,2836.00
2023-05-06T11:07:58.715Z,2812.00
2023-05-06T11:08:58.799Z,2803.00
2023-05-06T11:09:58.863Z,2834.00
2023-05-06T11:10:58.900Z,2833.00
2023-05-06T11:11:58.915Z,2835.00
2023-05-06T11:12:59.097Z,2797.00
2023-05-06T11:13:59.073Z,2815.00
2023-05-06T11:14:59.087Z,2837.00
2023-05-06T11:15:59.165Z,2823.00
2023-05-06T11:16:59.321Z,2844.00
2023-05-06T11:17:59.269Z,2849.00
2023-05-06T11:18:59.288Z,2880.00
2023-05-06T11:19:59.327Z,2857.00
2023-05-06T11:20:59.368Z,2857.00
2023-05-06T11:21:59.412Z,2887.00
2023-05-06T11:22:59.507Z,2856.00
2023-05-06T11:23:59.485Z,2841.00
2023-05-06T11:24:59.539Z,2849.00
2023-05-06T11:25:59.588Z,2859.00
2023-05-06T11:26:59.595Z,2876.00
2023-05-06T11:27:59.702Z,2877.00
2023-05-06T11:28:59.678Z,2892.00
2023-05-06T11:29:59.754Z,2901.00
2023-05-06T11:30:59.818Z,2890.00
2023-05-06T11:31:59.820Z,2870.00
2023-05-06T11:32:59.891Z,2885.00
2023-05-06T11:33:59.912Z,2876.00
2023-05-06T11:34:59.938Z,2870.00
2023-05-06T11:35:59.965Z,2884.00
2023-05-06T11:37:00.169Z,2865.00
2023-05-06T11:38:00.106Z,2838.00
2023-05-06T11:39:00.124Z,2805.00
2023-05-06T11:40:00.197Z,2813.00
2023-05-06T11:41:00.185Z,2833.00
2023-05-06T11:42:00.222Z,2808.00
2023-05-06T11:43:00.225Z,2796.00
2023-05-06T11:44:00.271Z,2801.00
2023-05-06T11:45:00.312Z,2787.00
2023-05-06T11:46:00.427Z,2831.00
2023-05-06T11:47:00.435Z,2869.00
2023-05-06T11:48:00.568Z,2870.00
2023-05-06T11:49:00.561Z,2860.00
2023-05-06T11:50:00.615Z,2859.00
2023-05-06T11:51:00.665Z,2876.00
2023-05-06T11:52:00.728Z,2852.00
2023-05-06T11:53:00.862Z,2876.00
2023-05-06T11:54:01.594Z,2857.00
2023-05-06T11:55:00.880Z,2866.00
2023-05-06T11:56:00.937Z,2847.00
2023-05-06T11:57:00.931Z,2849.00
2023-05-06T11:58:01.594Z,2829.00
2023-05-06T11:59:01.002Z,2829.00
2023-05-06T12:00:01.008Z,2818.00
2023-05-06T12:01:01.076Z,2799.00
2023-05-06T12:02:01.076Z,2806.00
2023-05-06T12:03:01.123Z,2745.00
2023-05-06T12:04:01.254Z,2739.00
2023-05-06T12:05:01.226Z,2663.00
2023-05-06T12:06:01.249Z,2665.00